Time;durP1;ratioP1;P1;durP2;ratioP2;P2;SDS_P1;SDS_P2;PMS_P1;PMS_P2;Temp;Humidity;BMP_temperature;BMP_pressure;BME280_temperature;BME280_humidity;BME280_pressure;Samples;Min_cycle;Max_cycle;Signal;HPM_P1;HPM_P2
2023/07/27 00:00:58;;;;;;;1.93;1.73;;;;;;;13.07;100.00;96659.38;5074820;28;20206;-58
2023/07/27 00:03:24;;;;;;;2.40;2.00;;;;;;;13.08;100.00;96663.69;5074183;28;20555;-58
2023/07/27 00:05:51;;;;;;;2.00;1.90;;;;;;;13.02;100.00;96661.66;5074646;28;20206;-57
2023/07/27 00:08:17;;;;;;;2.87;2.20;;;;;;;12.98;100.00;96655.00;5074290;28;20238;-58
2023/07/27 00:10:45;;;;;;;2.57;2.00;;;;;;;12.95;100.00;96656.16;5073998;28;20214;-58
2023/07/27 00:13:11;;;;;;;2.13;1.90;;;;;;;12.88;100.00;96649.81;5073613;28;20655;-58
2023/07/27 00:15:38;;;;;;;2.20;2.10;;;;;;;12.93;100.00;96649.34;5074094;28;20214;-58
2023/07/27 00:18:04;;;;;;;2.13;2.03;;;;;;;12.89;100.00;96654.13;5073705;28;20198;-57
2023/07/27 00:20:31;;;;;;;2.20;2.10;;;;;;;12.93;100.00;96650.16;5076131;28;20232;-58
2023/07/27 00:22:57;;;;;;;2.17;1.97;;;;;;;12.92;100.00;96645.03;5078837;28;20206;-58
2023/07/27 00:25:24;;;;;;;1.93;1.83;;;;;;;12.92;100.00;96640.56;5075616;28;20245;-58
2023/07/27 00:27:51;;;;;;;2.97;2.07;;;;;;;12.88;100.00;96643.66;5073671;28;20203;-58
2023/07/27 00:30:18;;;;;;;3.57;2.23;;;;;;;12.82;100.00;96633.69;5073957;28;20275;-58
2023/07/27 00:32:45;;;;;;;2.37;2.17;;;;;;;12.82;100.00;96637.16;5073918;28;20206;-58
2023/07/27 00:35:11;;;;;;;3.30;2.10;;;;;;;12.77;100.00;96628.84;5073635;28;20712;-58
2023/07/27 00:37:38;;;;;;;2.67;2.27;;;;;;;12.80;100.00;96631.19;5075233;28;20210;-58
2023/07/27 00:40:05;;;;;;;2.73;2.20;;;;;;;12.76;100.00;96634.31;5075356;28;20224;-58
2023/07/27 00:42:32;;;;;;;2.23;2.10;;;;;;;12.77;100.00;96626.19;5068340;28;20210;-58
2023/07/27 00:45:00;;;;;;;2.33;1.97;;;;;;;12.75;100.00;96630.81;5073145;28;20194;-57
2023/07/27 00:47:26;;;;;;;2.10;1.93;;;;;;;12.75;100.00;96614.88;5073806;28;20195;-58
2023/07/27 00:49:53;;;;;;;4.77;2.13;;;;;;;12.75;100.00;96609.56;5073609;28;20229;-58
2023/07/27 00:52:19;;;;;;;3.47;2.03;;;;;;;12.72;100.00;96611.72;5073817;28;20263;-58
2023/07/27 00:54:46;;;;;;;2.27;2.00;;;;;;;12.66;100.00;96620.31;5073857;28;20210;-57
2023/07/27 00:57:13;;;;;;;2.53;2.33;;;;;;;12.69;100.00;96612.88;5073980;28;20210;-58
2023/07/27 00:59:40;;;;;;;2.87;2.60;;;;;;;12.67;100.00;96606.91;5074020;28;20322;-58
2023/07/27 01:02:08;;;;;;;2.23;2.03;;;;;;;12.76;100.00;96615.72;5073693;28;20217;-58
2023/07/27 01:04:35;;;;;;;2.63;2.17;;;;;;;12.74;100.00;96610.59;5067022;28;20203;-58
2023/07/27 01:07:02;;;;;;;3.10;2.00;;;;;;;12.70;100.00;96601.28;5073468;28;20523;-57
2023/07/27 01:09:28;;;;;;;4.03;2.30;;;;;;;12.71;100.00;96604.78;5056718;28;20234;-57
2023/07/27 01:12:00;;;;;;;3.30;2.10;;;;;;;12.73;100.00;96606.25;5053442;28;20207;-58
2023/07/27 01:14:33;;;;;;;3.67;2.33;;;;;;;12.76;100.00;96608.59;5054484;28;20218;-59
2023/07/27 01:17:05;;;;;;;2.03;1.90;;;;;;;12.76;100.00;96598.00;5054046;28;20286;-57
2023/07/27 01:19:47;;;;;;;2.30;1.90;;;;;;;12.80;100.00;96591.38;5055809;28;20191;-57
2023/07/27 01:22:24;;;;;;;2.00;1.90;;;;;;;12.73;100.00;96592.16;5057501;28;20207;-57
2023/07/27 01:25:06;;;;;;;2.43;2.30;;;;;;;12.79;100.00;96592.34;5055615;28;20231;-58
2023/07/27 01:27:42;;;;;;;2.33;2.13;;;;;;;12.79;100.00;96587.06;5057574;28;20280;-57
2023/07/27 01:30:41;;;;;;;5.37;2.13;;;;;;;12.80;100.00;96583.41;5057455;28;20660;-58
2023/07/27 01:33:11;;;;;;;3.43;2.00;;;;;;;12.79;100.00;96584.41;5056904;28;20210;-60
2023/07/27 01:35:41;;;;;;;2.50;2.30;;;;;;;12.75;100.00;96579.59;5049976;28;20222;-58
2023/07/27 01:38:09;;;;;;;4.33;2.20;;;;;;;12.76;100.00;96582.06;5059251;28;20207;-57
2023/07/27 01:40:35;;;;;;;3.67;2.30;;;;;;;12.75;100.00;96580.38;5059452;28;20226;-58
2023/07/27 01:43:02;;;;;;;2.30;2.10;;;;;;;12.76;100.00;96584.72;5057681;28;20635;-58
2023/07/27 01:45:29;;;;;;;3.43;2.53;;;;;;;12.76;100.00;96587.38;5057212;28;20638;-58
2023/07/27 01:47:57;;;;;;;1.90;1.80;;;;;;;12.72;100.00;96575.41;5057026;28;20536;-58
2023/07/27 01:50:24;;;;;;;4.00;2.20;;;;;;;12.72;100.00;96574.56;5057286;28;20223;-57
2023/07/27 01:52:52;;;;;;;3.57;2.27;;;;;;;12.72;100.00;96569.25;5057162;28;20218;-58
2023/07/27 01:55:19;;;;;;;2.33;2.13;;;;;;;12.70;100.00;96572.09;5056728;28;20241;-58
2023/07/27 01:57:46;;;;;;;3.03;2.27;;;;;;;12.64;100.00;96572.72;5056559;28;20225;-58
2023/07/27 02:00:14;;;;;;;2.77;2.10;;;;;;;12.71;100.00;96562.31;5057676;28;20226;-58
2023/07/27 02:02:41;;;;;;;2.10;1.93;;;;;;;12.73;100.00;96565.63;5056958;28;20210;-58
2023/07/27 02:05:18;;;;;;;2.97;2.40;;;;;;;12.73;100.00;96565.63;5056960;28;20203;-57
2023/07/27 02:07:44;;;;;;;2.37;2.17;;;;;;;12.72;100.00;96558.66;5056173;28;20550;-58
2023/07/27 02:10:14;;;;;;;2.70;2.50;;;;;;;12.78;100.00;96550.91;5056823;28;20238;-59
2023/07/27 02:12:44;;;;;;;2.20;2.00;;;;;;;12.79;100.00;96541.94;5044273;28;20207;-57
2023/07/27 02:15:15;;;;;;;4.80;2.20;;;;;;;12.77;100.00;96533.31;5056314;28;20211;-58
2023/07/27 02:17:43;;;;;;;3.40;2.23;;;;;;;12.78;100.00;96537.66;5056465;28;20635;-57
2023/07/27 02:20:13;;;;;;;2.53;2.33;;;;;;;12.79;100.00;96533.97;5056150;28;20195;-57
2023/07/27 02:22:41;;;;;;;2.63;2.30;;;;;;;12.83;100.00;96524.72;5056054;28;20230;-58
2023/07/27 02:25:08;;;;;;;2.50;2.40;;;;;;;12.79;100.00;96518.06;5053079;28;20244;-58
2023/07/27 02:27:36;;;;;;;5.30;2.20;;;;;;;12.84;100.00;96517.59;5035437;28;20620;-58
2023/07/27 02:30:03;;;;;;;4.37;2.50;;;;;;;12.83;100.00;96519.41;5049469;28;20231;-58
2023/07/27 02:32:31;;;;;;;2.50;2.30;;;;;;;12.85;100.00;96528.06;5045605;28;20207;-58
2023/07/27 02:34:57;;;;;;;2.10;1.97;;;;;;;12.84;100.00;96525.53;5042597;28;20288;-58
2023/07/27 02:37:25;;;;;;;2.10;2.00;;;;;;;12.89;100.00;96523.25;5045602;28;20212;-57
2023/07/27 02:39:51;;;;;;;2.97;2.57;;;;;;;12.89;100.00;96518.75;5048786;28;20230;-58
2023/07/27 02:42:18;;;;;;;3.53;2.10;;;;;;;12.91;100.00;96515.97;5039672;28;20659;-58
2023/07/27 02:44:44;;;;;;;2.13;2.00;;;;;;;12.91;100.00;96516.78;5039445;28;20207;-57
2023/07/27 02:47:11;;;;;;;3.13;2.57;;;;;;;12.88;100.00;96511.81;5045165;28;20208;-58
2023/07/27 02:49:37;;;;;;;2.37;2.27;;;;;;;12.92;100.00;96518.47;5038999;28;20713;-58
2023/07/27 02:52:04;;;;;;;2.03;1.93;;;;;;;12.95;100.00;96528.75;5055461;28;20203;-58
2023/07/27 02:54:32;;;;;;;2.63;2.43;;;;;;;13.00;100.00;96524.78;5038668;28;20235;-58
2023/07/27 02:56:58;;;;;;;3.07;2.50;;;;;;;13.00;100.00;96516.81;5045237;28;20639;-59
2023/07/27 02:59:25;;;;;;;2.47;2.27;;;;;;;12.98;100.00;96522.28;5042016;28;20268;-58
2023/07/27 03:01:51;;;;;;;3.47;2.20;;;;;;;12.96;100.00;96518.97;5055181;28;20207;-59
2023/07/27 03:04:18;;;;;;;4.23;2.40;;;;;;;12.98;100.00;96512.50;5051057;28;20207;-58
2023/07/27 03:06:44;;;;;;;4.53;1.93;;;;;;;13.03;100.00;96512.03;5046098;28;20211;-58
2023/07/27 03:09:10;;;;;;;2.60;2.40;;;;;;;12.99;100.00;96502.72;5055070;28;20227;-58
2023/07/27 03:11:38;;;;;;;2.40;2.30;;;;;;;12.94;100.00;96510.31;5054695;28;20211;-57
2023/07/27 03:14:05;;;;;;;2.13;2.03;;;;;;;12.97;100.00;96508.19;5041631;28;20221;-58
2023/07/27 03:16:31;;;;;;;2.30;2.10;;;;;;;13.03;100.00;96511.19;5054911;28;20207;-59
2023/07/27 03:18:58;;;;;;;2.67;2.47;;;;;;;12.98;100.00;96512.50;5054978;28;20203;-58
2023/07/27 03:21:25;;;;;;;2.10;2.00;;;;;;;13.01;100.00;96505.19;5054857;28;20210;-59
2023/07/27 03:23:51;;;;;;;3.23;2.33;;;;;;;12.99;100.00;96518.66;5052612;28;20257;-58
2023/07/27 03:26:18;;;;;;;6.13;2.40;;;;;;;12.97;100.00;96518.78;5054023;28;20590;-60
2023/07/27 03:28:45;;;;;;;2.77;2.20;;;;;;;13.00;100.00;96514.19;5054788;28;20203;-58
2023/07/27 03:31:16;;;;;;;2.83;2.40;;;;;;;12.95;100.00;96510.19;5054744;28;20199;-58
2023/07/27 03:33:42;;;;;;;3.83;2.47;;;;;;;12.97;100.00;96510.84;5041905;28;20211;-57
2023/07/27 03:36:09;;;;;;;2.70;2.47;;;;;;;12.93;100.00;96506.81;5055291;28;20218;-58
2023/07/27 03:38:36;;;;;;;2.70;2.50;;;;;;;12.97;100.00;96497.56;5043373;28;20356;-58
2023/07/27 03:41:02;;;;;;;2.80;2.50;;;;;;;13.02;100.00;96502.41;5042586;28;20657;-58
2023/07/27 03:43:29;;;;;;;2.70;2.10;;;;;;;12.98;100.00;96495.75;5045606;28;20214;-58
2023/07/27 03:45:56;;;;;;;3.43;2.33;;;;;;;13.03;100.00;96495.25;5041430;28;20361;-58
2023/07/27 03:48:23;;;;;;;2.30;2.20;;;;;;;13.07;100.00;96493.94;5042033;28;20262;-58
2023/07/27 03:50:49;;;;;;;3.67;2.10;;;;;;;13.05;100.00;96498.56;5052847;28;20218;-58
2023/07/27 03:53:16;;;;;;;2.97;2.40;;;;;;;13.12;100.00;96492.50;5041982;28;20265;-57
2023/07/27 03:55:42;;;;;;;3.10;2.17;;;;;;;13.15;100.00;96492.16;5053227;28;20207;-58
2023/07/27 03:58:09;;;;;;;5.20;2.23;;;;;;;13.15;100.00;96491.31;5041764;28;20512;-58
2023/07/27 04:00:36;;;;;;;2.60;2.40;;;;;;;13.09;100.00;96486.66;5040203;28;20203;-59
2023/07/27 04:03:04;;;;;;;3.50;2.60;;;;;;;13.16;100.00;96485.03;5034888;28;20261;-58
2023/07/27 04:05:31;;;;;;;2.43;1.97;;;;;;;13.11;100.00;96485.50;5035624;28;20215;-58
2023/07/27 04:07:58;;;;;;;4.03;2.33;;;;;;;13.12;100.00;96486.34;5046127;28;20262;-58
2023/07/27 04:10:24;;;;;;;2.03;1.90;;;;;;;13.11;100.00;96477.53;5056030;28;20232;-58
2023/07/27 04:12:51;;;;;;;3.00;2.70;;;;;;;13.12;100.00;96475.72;5063004;28;20210;-59
2023/07/27 04:15:17;;;;;;;2.60;2.40;;;;;;;13.16;100.00;96477.06;5042682;28;20211;-59
2023/07/27 04:17:44;;;;;;;3.93;2.33;;;;;;;13.16;100.00;96477.06;5054051;28;20217;-58
2023/07/27 04:20:12;;;;;;;3.33;2.20;;;;;;;13.15;100.00;96470.91;5046232;28;20195;-58
2023/07/27 04:22:40;;;;;;;2.63;2.17;;;;;;;13.20;100.00;96473.09;5054061;28;20211;-61
2023/07/27 04:25:08;;;;;;;3.53;2.30;;;;;;;13.23;100.00;96478.06;5051681;28;20246;-58
2023/07/27 04:27:34;;;;;;;2.50;2.30;;;;;;;13.23;100.00;96472.75;5062367;28;20272;-57
2023/07/27 04:30:01;;;;;;;2.90;2.50;;;;;;;13.15;100.00;96476.22;5064997;28;20234;-58
2023/07/27 04:32:27;;;;;;;2.60;2.40;;;;;;;13.14;100.00;96481.72;5063368;28;20206;-59
2023/07/27 04:34:56;;;;;;;2.57;2.37;;;;;;;13.18;100.00;96475.91;5053751;28;20211;-59
2023/07/27 04:37:24;;;;;;;2.80;2.60;;;;;;;13.32;100.00;96482.44;5043454;28;20269;-57
2023/07/27 04:39:50;;;;;;;4.80;2.60;;;;;;;13.35;100.00;96492.72;5050625;28;20225;-58
2023/07/27 04:42:17;;;;;;;4.17;2.60;;;;;;;13.38;100.00;96481.75;5042999;28;20226;-58
2023/07/27 04:44:43;;;;;;;3.20;2.37;;;;;;;13.42;100.00;96481.28;5046685;28;20211;-58
2023/07/27 04:47:10;;;;;;;3.13;2.40;;;;;;;13.48;100.00;96481.59;5043873;28;20768;-58
2023/07/27 04:49:36;;;;;;;2.60;2.40;;;;;;;13.51;100.00;96484.75;5049439;28;20684;-57
2023/07/27 04:52:03;;;;;;;2.70;2.50;;;;;;;13.52;100.00;96486.44;5044049;28;20539;-58
2023/07/27 04:54:31;;;;;;;2.77;2.43;;;;;;;13.57;100.00;96492.06;5040096;28;20222;-58
2023/07/27 04:56:57;;;;;;;2.87;2.67;;;;;;;13.63;100.00;96495.91;5053136;28;20210;-58
2023/07/27 04:59:23;;;;;;;3.90;2.80;;;;;;;13.64;100.00;96498.38;5053531;28;20280;-57
2023/07/27 05:01:50;;;;;;;2.50;2.10;;;;;;;13.70;100.00;96491.59;5042554;28;20660;-58
2023/07/27 05:04:17;;;;;;;3.33;2.73;;;;;;;13.75;100.00;96491.91;5047019;28;20211;-57
2023/07/27 05:06:44;;;;;;;2.50;2.30;;;;;;;13.80;100.00;96497.56;5044751;28;20250;-58
2023/07/27 05:09:10;;;;;;;3.00;2.77;;;;;;;13.80;100.00;96511.69;5039468;28;20628;-58
2023/07/27 05:11:38;;;;;;;2.83;2.50;;;;;;;13.83;100.00;96506.03;5048135;28;20233;-57
2023/07/27 05:14:05;;;;;;;2.80;2.60;;;;;;;13.88;100.00;96501.06;5057530;28;20217;-57
2023/07/27 05:16:31;;;;;;;2.70;2.50;;;;;;;13.91;100.00;96503.38;5057294;28;20306;-58
2023/07/27 05:18:57;;;;;;;2.77;2.57;;;;;;;13.98;100.00;96510.69;5052614;28;20212;-58
2023/07/27 05:21:24;;;;;;;6.60;2.77;;;;;;;14.01;100.00;96500.53;5054544;28;20195;-57
2023/07/27 05:23:51;;;;;;;2.77;2.57;;;;;;;14.10;100.00;96496.84;5057325;28;20214;-57
2023/07/27 05:26:17;;;;;;;3.00;2.70;;;;;;;14.13;100.00;96493.06;5044023;28;20236;-58
2023/07/27 05:28:46;;;;;;;7.43;2.70;;;;;;;14.12;100.00;96491.38;5055926;28;20585;-58
2023/07/27 05:31:12;;;;;;;3.70;2.40;;;;;;;14.20;100.00;96499.34;5057030;28;20234;-57
2023/07/27 05:33:39;;;;;;;7.87;2.33;;;;;;;14.23;100.00;96499.00;5043910;28;20219;-58
2023/07/27 05:36:05;;;;;;;2.70;2.43;;;;;;;14.30;100.00;96489.34;5056665;28;20627;-58
2023/07/27 05:38:32;;;;;;;4.33;2.43;;;;;;;14.36;100.00;96476.25;5056901;28;20234;-57
2023/07/27 05:41:00;;;;;;;4.63;2.40;;;;;;;14.36;100.00;96483.38;5043709;28;20226;-57
2023/07/27 05:43:26;;;;;;;2.97;2.63;;;;;;;14.43;100.00;96484.34;5042792;28;20207;-59
2023/07/27 05:45:54;;;;;;;2.67;2.40;;;;;;;14.43;100.00;96487.03;5057448;28;20210;-64
2023/07/27 05:48:21;;;;;;;3.80;2.60;;;;;;;14.50;100.00;96482.69;5045914;28;20298;-59
2023/07/27 05:50:47;;;;;;;2.33;2.13;;;;;;;14.49;100.00;96491.66;5059611;28;20253;-57
2023/07/27 05:53:13;;;;;;;3.13;2.27;;;;;;;14.53;100.00;96494.81;5052486;28;20250;-58
2023/07/27 05:55:40;;;;;;;5.67;2.80;;;;;;;14.57;100.00;96491.63;5052656;28;20660;-58
2023/07/27 05:58:06;;;;;;;4.10;2.93;;;;;;;14.57;100.00;96488.97;5058731;28;20540;-58
2023/07/27 06:00:33;;;;;;;2.90;2.60;;;;;;;14.59;100.00;96491.47;5058328;28;20260;-58
2023/07/27 06:03:01;;;;;;;2.70;2.50;;;;;;;14.61;100.00;96492.97;5038952;28;20212;-58
2023/07/27 06:05:30;;;;;;;3.60;2.73;;;;;;;14.62;100.00;96494.63;5051545;28;20524;-59
2023/07/27 06:07:57;;;;;;;2.70;2.50;;;;;;;14.63;100.00;96490.13;5046196;28;20207;-58
2023/07/27 06:10:23;;;;;;;2.50;2.40;;;;;;;14.66;100.00;96490.63;5043416;28;20231;-58
2023/07/27 06:12:50;;;;;;;2.60;2.40;;;;;;;14.69;100.00;96490.28;5045270;28;20210;-58
2023/07/27 06:15:17;;;;;;;6.03;2.57;;;;;;;14.70;100.00;96483.13;5057729;28;20539;-58
2023/07/27 06:17:43;;;;;;;2.73;2.53;;;;;;;14.70;100.00;96481.25;5055900;28;20250;-57
2023/07/27 06:20:12;;;;;;;2.93;2.73;;;;;;;14.78;100.00;96483.06;5043644;28;20208;-57
2023/07/27 06:22:38;;;;;;;2.87;2.57;;;;;;;14.86;100.00;96478.56;5048528;28;20214;-58
2023/07/27 06:25:05;;;;;;;4.70;2.57;;;;;;;14.93;100.00;96492.84;5051465;28;20568;-58
2023/07/27 06:27:32;;;;;;;2.60;2.50;;;;;;;14.98;100.00;96494.16;5046178;28;20544;-58
2023/07/27 06:29:59;;;;;;;4.73;2.33;;;;;;;15.03;100.00;96497.09;5056989;28;20290;-58
2023/07/27 06:32:26;;;;;;;3.40;3.10;;;;;;;15.07;100.00;96493.09;5047161;28;20212;-58
2023/07/27 06:34:52;;;;;;;2.63;2.40;;;;;;;15.15;100.00;96498.38;5038685;28;20246;-57
2023/07/27 06:37:20;;;;;;;3.77;2.90;;;;;;;15.20;100.00;96493.34;5047470;28;20210;-58
2023/07/27 06:39:46;;;;;;;2.60;2.40;;;;;;;15.24;100.00;96494.66;5049640;28;20199;-58
2023/07/27 06:42:13;;;;;;;3.77;2.47;;;;;;;15.30;100.00;96504.63;5035962;28;20303;-58
2023/07/27 06:44:39;;;;;;;2.60;2.27;;;;;;;15.37;100.00;96489.59;5038776;28;20607;-57
2023/07/27 06:47:06;;;;;;;2.57;2.37;;;;;;;15.41;100.00;96485.56;5046476;28;20229;-58
2023/07/27 06:49:33;;;;;;;2.73;2.53;;;;;;;15.44;100.00;96488.69;5038421;28;20265;-58
2023/07/27 06:51:59;;;;;;;3.10;2.77;;;;;;;15.44;100.00;96495.88;5046369;28;20224;-58
2023/07/27 06:54:29;;;;;;;2.50;2.30;;;;;;;15.51;100.00;96491.53;5049281;28;20579;-58
2023/07/27 06:56:56;;;;;;;2.80;2.60;;;;;;;15.56;100.00;96496.31;5035191;28;20273;-58
2023/07/27 06:59:22;;;;;;;2.92;2.60;;;;;;;15.63;100.00;96490.09;5035493;28;20238;-58
2023/07/27 07:01:49;;;;;;;3.55;3.03;;;;;;;15.69;100.00;96480.59;5035714;28;20402;-58
2023/07/27 07:04:15;;;;;;;2.90;2.53;;;;;;;15.75;100.00;96483.34;5035700;28;20216;-58
2023/07/27 07:06:41;;;;;;;2.60;2.40;;;;;;;15.78;100.00;96475.00;5035547;28;20275;-58
2023/07/27 07:09:10;;;;;;;2.67;2.47;;;;;;;15.82;100.00;96478.13;5035429;28;20215;-58
2023/07/27 07:11:38;;;;;;;3.65;2.40;;;;;;;15.84;100.00;96478.78;5035030;28;20395;-57
2023/07/27 07:14:04;;;;;;;2.75;2.55;;;;;;;15.91;100.00;96482.38;5035650;28;20207;-58
2023/07/27 07:16:32;;;;;;;3.17;2.90;;;;;;;15.87;100.00;96489.91;5045471;28;20207;-57
2023/07/27 07:18:58;;;;;;;2.67;2.47;;;;;;;15.92;100.00;96484.03;5038013;28;20274;-59
2023/07/27 07:21:25;;;;;;;2.60;2.40;;;;;;;15.97;100.00;96481.69;5041777;28;20218;-58
2023/07/27 07:23:51;;;;;;;2.80;2.60;;;;;;;15.99;100.00;96473.47;5042360;28;20260;-58
2023/07/27 07:26:18;;;;;;;3.13;2.70;;;;;;;16.06;100.00;96472.59;5042298;28;20243;-57
2023/07/27 07:28:45;;;;;;;2.97;2.25;;;;;;;16.13;100.00;96484.19;5049308;28;20571;-58
2023/07/27 07:31:14;;;;;;;2.88;2.67;;;;;;;16.19;100.00;96482.66;5034460;28;20232;-58
2023/07/27 07:33:40;;;;;;;2.95;2.53;;;;;;;16.19;100.00;96480.78;5035402;28;20225;-57
2023/07/27 07:36:07;;;;;;;3.50;2.85;;;;;;;16.28;100.00;96478.88;5034770;28;20207;-57
2023/07/27 07:38:33;;;;;;;4.15;2.95;;;;;;;16.34;100.00;96472.78;5034917;28;20207;-57
2023/07/27 07:41:01;;;;;;;4.80;3.22;;;;;;;16.42;100.00;96475.38;5034851;28;20514;-58
2023/07/27 07:43:27;;;;;;;4.68;2.65;;;;;;;16.49;100.00;96473.66;5038863;28;20640;-58
2023/07/27 07:45:55;;;;;;;2.83;2.53;;;;;;;16.59;100.00;96470.72;5035548;28;20647;-58
2023/07/27 07:48:22;;;;;;;2.30;2.20;;;;;;;16.64;100.00;96469.19;5034756;28;20208;-57
2023/07/27 07:50:50;;;;;;;4.55;2.47;;;;;;;16.68;100.00;96458.94;5034487;28;20239;-57
2023/07/27 07:53:16;;;;;;;2.58;2.38;;;;;;;16.79;100.00;96461.97;5034569;28;20211;-57
2023/07/27 07:55:43;;;;;;;2.53;2.33;;;;;;;16.82;100.00;96458.94;5038121;28;20581;-58
2023/07/27 07:58:09;;;;;;;2.47;2.30;;;;;;;16.92;100.00;96467.50;5060842;28;20204;-58
2023/07/27 08:00:35;;;;;;;3.45;2.38;;;;;;;17.00;100.00;96461.22;5048023;28;20199;-59
2023/07/27 08:03:04;;;;;;;2.78;2.40;;;;;;;17.10;100.00;96466.25;5044157;28;20264;-59
2023/07/27 08:05:30;;;;;;;2.97;2.08;;;;;;;17.22;100.00;96462.06;5039121;28;20218;-58
2023/07/27 08:07:57;;;;;;;2.55;2.05;;;;;;;17.38;100.00;96456.50;5034418;28;20219;-57
2023/07/27 08:10:23;;;;;;;2.60;2.40;;;;;;;17.51;100.00;96447.78;5034500;28;20265;-57
2023/07/27 08:12:50;;;;;;;2.88;2.58;;;;;;;17.57;97.67;96437.16;5033698;28;20234;-57
2023/07/27 08:15:17;;;;;;;4.07;2.25;;;;;;;17.66;96.07;96445.91;5036484;28;20509;-58
2023/07/27 08:17:43;;;;;;;2.42;2.22;;;;;;;17.75;97.39;96434.88;5060168;28;20211;-58
2023/07/27 08:20:12;;;;;;;3.60;2.50;;;;;;;17.86;96.88;96429.00;5051324;28;20227;-59
2023/07/27 08:22:39;;;;;;;2.10;2.00;;;;;;;18.00;96.84;96423.75;5034567;28;20207;-58
2023/07/27 08:25:06;;;;;;;1.80;1.70;;;;;;;18.13;97.33;96424.69;5045685;28;20235;-57
2023/07/27 08:27:34;;;;;;;2.40;2.20;;;;;;;18.27;97.45;96425.63;5033672;28;20212;-58
2023/07/27 08:30:00;;;;;;;2.35;2.25;;;;;;;18.36;94.30;96414.53;5034337;28;20246;-57
2023/07/27 08:32:27;;;;;;;5.50;2.50;;;;;;;18.46;93.32;96411.50;5043054;28;20672;-58
2023/07/27 08:34:53;;;;;;;2.55;2.35;;;;;;;18.56;92.99;96408.50;5037696;28;21475;-57
2023/07/27 08:37:21;;;;;;;2.20;2.10;;;;;;;18.68;93.42;96417.63;5038511;28;20235;-58
2023/07/27 08:39:48;;;;;;;2.72;2.42;;;;;;;18.78;91.57;96418.06;5034021;28;20331;-58
2023/07/27 08:42:15;;;;;;;2.42;2.22;;;;;;;19.02;88.03;96416.75;5035781;28;20743;-58
2023/07/27 08:44:43;;;;;;;2.97;2.40;;;;;;;19.49;86.09;96410.50;5037900;28;20207;-58
2023/07/27 08:47:10;;;;;;;1.90;1.80;;;;;;;19.84;86.03;96410.13;5037774;28;20302;-57
2023/07/27 08:49:37;;;;;;;3.10;2.22;;;;;;;19.99;78.90;96409.06;5037923;28;20303;-58
2023/07/27 08:52:04;;;;;;;2.45;2.25;;;;;;;20.21;79.14;96408.66;5036429;28;20232;-57
2023/07/27 08:54:32;;;;;;;2.72;2.53;;;;;;;20.40;80.85;96401.63;5051047;28;20540;-58
2023/07/27 08:56:59;;;;;;;2.67;2.47;;;;;;;20.55;75.28;96396.81;5037221;28;20541;-57
2023/07/27 08:59:25;;;;;;;2.33;2.22;;;;;;;20.68;77.80;96388.75;5037619;28;20220;-58
2023/07/27 09:01:52;;;;;;;3.05;2.70;;;;;;;20.75;75.56;96386.84;5037505;28;20203;-58
2023/07/27 09:04:18;;;;;;;2.13;1.92;;;;;;;20.79;77.56;96389.94;5037762;28;20222;-59
2023/07/27 09:06:48;;;;;;;2.72;2.20;;;;;;;20.78;78.64;96386.44;5048772;28;20289;-58
2023/07/27 09:09:16;;;;;;;2.10;2.00;;;;;;;20.75;79.99;96397.63;5038986;28;20307;-58
2023/07/27 09:11:44;;;;;;;2.88;2.15;;;;;;;20.64;75.73;96398.25;5037174;28;20243;-58
2023/07/27 09:14:11;;;;;;;2.78;2.28;;;;;;;20.73;78.53;96388.91;5036608;28;20211;-59
2023/07/27 09:16:38;;;;;;;2.67;2.47;;;;;;;20.80;77.78;96389.72;5047607;28;20775;-59
2023/07/27 09:19:05;;;;;;;2.70;2.45;;;;;;;20.81;77.18;96391.38;5044088;28;20210;-58
2023/07/27 09:21:39;;;;;;;2.45;2.33;;;;;;;20.88;77.79;96393.19;5043976;28;20478;-57
2023/07/27 09:24:05;;;;;;;2.78;2.58;;;;;;;20.78;74.52;96391.81;5043634;28;20222;-57
2023/07/27 09:26:32;;;;;;;2.47;2.35;;;;;;;20.81;75.86;96383.31;5043067;28;20612;-57
2023/07/27 09:29:03;;;;;;;2.40;2.25;;;;;;;20.76;77.42;96380.44;5057642;28;20214;-58
2023/07/27 09:31:32;;;;;;;2.42;2.22;;;;;;;20.79;77.67;96373.81;5041796;28;20230;-57
2023/07/27 09:33:58;;;;;;;2.65;2.25;;;;;;;21.00;78.31;96375.38;5046586;28;20235;-57
2023/07/27 09:36:25;;;;;;;2.55;2.35;;;;;;;21.08;75.47;96372.44;5049522;28;20205;-58
2023/07/27 09:38:53;;;;;;;2.45;2.25;;;;;;;21.11;73.95;96374.75;5058095;28;20203;-58
2023/07/27 09:41:20;;;;;;;2.85;2.10;;;;;;;21.20;72.20;96370.75;5043689;28;20274;-59
2023/07/27 09:43:46;;;;;;;2.72;2.53;;;;;;;21.37;74.08;96361.13;5049654;28;20537;-58
2023/07/27 09:46:14;;;;;;;1.98;1.88;;;;;;;21.51;71.53;96354.59;5052863;28;20203;-57
2023/07/27 09:48:40;;;;;;;3.00;2.58;;;;;;;21.57;72.06;96353.75;5059319;28;20203;-57
2023/07/27 09:51:08;;;;;;;4.93;2.47;;;;;;;21.78;74.02;96350.69;5043902;28;20669;-57
2023/07/27 09:53:35;;;;;;;2.75;2.55;;;;;;;21.67;69.41;96350.56;5056938;28;20199;-58
2023/07/27 09:56:02;;;;;;;2.92;2.67;;;;;;;21.76;69.65;96344.69;5057351;28;20538;-58
2023/07/27 09:58:29;;;;;;;2.60;2.40;;;;;;;21.79;70.11;96343.41;5049161;28;20239;-57
2023/07/27 10:00:56;;;;;;;4.10;2.40;;;;;;;21.80;71.28;96335.13;5039654;28;20659;-58
2023/07/27 10:03:24;;;;;;;3.95;2.65;;;;;;;21.69;70.60;96343.91;5056256;28;20213;-58
2023/07/27 10:05:53;;;;;;;2.63;2.28;;;;;;;21.61;73.15;96341.47;5057609;28;20214;-58
2023/07/27 10:08:19;;;;;;;3.20;2.40;;;;;;;21.67;74.60;96337.94;5046379;28;20691;-58
2023/07/27 10:10:46;;;;;;;2.50;2.30;;;;;;;21.71;75.63;96328.38;5054581;28;20214;-57
2023/07/27 10:13:14;;;;;;;2.90;2.70;;;;;;;21.61;70.11;96328.03;5057067;28;20218;-57
2023/07/27 10:15:42;;;;;;;2.78;2.50;;;;;;;21.64;70.27;96327.59;5056037;28;20218;-58
2023/07/27 10:18:11;;;;;;;2.40;2.15;;;;;;;21.67;71.65;96320.94;5056062;28;20218;-57
2023/07/27 10:20:39;;;;;;;2.67;2.28;;;;;;;21.65;72.17;96317.63;5056128;28;20203;-58
2023/07/27 10:23:10;;;;;;;2.45;2.30;;;;;;;21.62;71.63;96329.69;5045123;28;20636;-58
2023/07/27 10:26:02;;;;;;;3.35;2.58;;;;;;;21.57;71.53;96332.22;5053753;28;20231;-58
2023/07/27 10:28:34;;;;;;;2.80;2.60;;;;;;;21.73;73.66;96328.97;5042480;28;20652;-58
2023/07/27 10:31:16;;;;;;;2.40;2.30;;;;;;;22.07;75.23;96321.44;5055560;28;20217;-58
2023/07/27 10:33:45;;;;;;;2.65;2.45;;;;;;;22.32;68.21;96323.03;5039880;28;20203;-57
2023/07/27 10:36:13;;;;;;;2.20;2.00;;;;;;;22.59;70.38;96326.25;5057019;28;20226;-59
2023/07/27 10:38:40;;;;;;;2.22;2.13;;;;;;;22.64;66.77;96321.00;5048794;28;20216;-58
2023/07/27 10:41:13;;;;;;;3.03;1.90;;;;;;;22.63;63.48;96326.63;5050077;28;20527;-59
2023/07/27 10:44:13;;;;;;;2.53;2.30;;;;;;;22.56;63.26;96328.56;5038395;28;20215;-59
2023/07/27 10:46:39;;;;;;;2.22;2.03;;;;;;;22.40;62.95;96330.00;5042019;28;20217;-58
2023/07/27 10:49:08;;;;;;;2.00;1.90;;;;;;;22.27;65.01;96332.84;5055834;28;20211;-57
2023/07/27 10:51:37;;;;;;;2.28;2.17;;;;;;;22.14;65.15;96324.91;5042342;28;20222;-58
2023/07/27 10:54:04;;;;;;;2.58;2.15;;;;;;;22.09;62.53;96324.72;5055960;28;20561;-58
2023/07/27 10:56:32;;;;;;;2.22;1.90;;;;;;;22.01;63.77;96316.94;5048638;28;20212;-57
2023/07/27 10:59:00;;;;;;;1.88;1.77;;;;;;;21.92;65.21;96307.50;5037390;28;20212;-58
2023/07/27 11:01:26;;;;;;;2.33;2.05;;;;;;;21.96;67.21;96317.63;5056047;28;20245;-57
2023/07/27 11:03:55;;;;;;;2.17;2.03;;;;;;;21.92;67.43;96311.03;5055774;28;20199;-58
2023/07/27 11:06:22;;;;;;;2.88;1.98;;;;;;;21.92;67.34;96318.28;5046593;28;20607;-58
2023/07/27 11:08:49;;;;;;;1.90;1.80;;;;;;;21.77;69.12;96311.34;5036246;28;20234;-57
2023/07/27 11:11:17;;;;;;;3.33;2.03;;;;;;;21.75;71.32;96304.53;5043878;28;20226;-57
2023/07/27 11:13:44;;;;;;;1.92;1.83;;;;;;;21.67;69.19;96305.63;5040888;28;20214;-56
2023/07/27 11:16:13;;;;;;;4.50;2.88;;;;;;;21.63;70.17;96303.59;5042682;28;20203;-58
2023/07/27 11:18:41;;;;;;;2.40;2.03;;;;;;;21.53;67.60;96298.72;5039978;28;20224;-58
2023/07/27 11:21:08;;;;;;;3.03;2.42;;;;;;;21.52;69.57;96307.00;5041652;28;20215;-58
2023/07/27 11:23:43;;;;;;;1.92;1.83;;;;;;;21.51;70.87;96299.97;5037169;28;20644;-57
2023/07/27 11:26:12;;;;;;;2.05;1.95;;;;;;;21.51;68.83;96299.97;5055050;28;20242;-58
2023/07/27 11:28:40;;;;;;;2.28;2.08;;;;;;;21.57;70.17;96302.63;5037034;28;20598;-58